createdAt,value
2023-03-01T00:00:00.182Z,1.26
2023-03-01T00:01:00.171Z,1.23
2023-03-01T00:02:00.228Z,1.20
2023-03-01T00:03:00.173Z,1.16
2023-03-01T00:04:00.148Z,1.24
2023-03-01T00:05:00.159Z,1.34
2023-03-01T00:06:00.136Z,1.32
2023-03-01T00:07:00.129Z,1.20
2023-03-01T00:08:00.118Z,1.24
2023-03-01T00:09:00.118Z,1.34
2023-03-01T00:10:00.133Z,1.32
2023-03-01T00:11:01.176Z,1.29
2023-03-01T00:12:00.090Z,1.24
2023-03-01T00:13:00.106Z,1.23
2023-03-01T00:14:00.095Z,1.32
2023-03-01T00:15:00.146Z,1.33
2023-03-01T00:16:00.079Z,1.42
2023-03-01T00:17:00.081Z,1.34
2023-03-01T00:18:00.059Z,1.33
2023-03-01T00:19:00.043Z,1.33
2023-03-01T00:20:00.061Z,1.32
2023-03-01T00:21:00.031Z,1.30
2023-03-01T00:22:00.024Z,1.29
2023-03-01T00:23:00.022Z,1.37
2023-03-01T00:24:00.012Z,1.27
2023-03-01T00:24:59.997Z,1.40
2023-03-01T00:25:59.994Z,1.34
2023-03-01T00:26:59.992Z,1.40
2023-03-01T00:27:59.974Z,1.34
2023-03-01T00:28:59.979Z,1.36
2023-03-01T00:29:59.969Z,1.32
2023-03-01T00:31:00.229Z,1.34
2023-03-01T00:31:59.983Z,1.30
2023-03-01T00:32:59.951Z,1.26
2023-03-01T00:33:59.946Z,1.12
2023-03-01T00:34:59.938Z,1.16
2023-03-01T00:35:59.928Z,1.06
2023-03-01T00:36:59.918Z,1.08
2023-03-01T00:37:59.924Z,1.08
2023-03-01T00:38:59.918Z,1.16
2023-03-01T00:39:59.903Z,1.23
2023-03-01T00:40:59.894Z,1.16
2023-03-01T00:41:59.882Z,1.29
2023-03-01T00:42:59.886Z,1.20
2023-03-01T00:43:59.869Z,1.18
2023-03-01T00:44:59.869Z,1.06
2023-03-01T00:45:59.867Z,0.98
2023-03-01T00:46:59.868Z,0.91
2023-03-01T00:47:59.841Z,0.86
2023-03-01T00:48:59.839Z,0.86
2023-03-01T00:49:59.834Z,0.87
2023-03-01T00:50:59.827Z,0.83
2023-03-01T00:51:59.828Z,0.86
2023-03-01T00:52:59.809Z,0.93
2023-03-01T00:53:59.798Z,0.98
2023-03-01T00:54:59.794Z,1.05
2023-03-01T00:55:59.783Z,1.11
2023-03-01T00:56:59.777Z,1.04
2023-03-01T00:57:59.771Z,1.09
2023-03-01T00:58:59.769Z,0.96
2023-03-01T00:59:59.757Z,0.96
2023-03-01T01:00:59.753Z,0.94
2023-03-01T01:01:59.741Z,0.97
2023-03-01T01:02:59.761Z,1.06
2023-03-01T01:03:59.729Z,1.04
2023-03-01T01:04:59.724Z,0.97
2023-03-01T01:05:59.711Z,0.98
2023-03-01T01:06:59.709Z,0.91
2023-03-01T01:07:59.697Z,0.80
2023-03-01T01:08:59.692Z,0.70
2023-03-01T01:09:59.686Z,0.83
2023-03-01T01:10:59.679Z,0.86
2023-03-01T01:11:59.673Z,0.75
2023-03-01T01:12:59.670Z,0.69
2023-03-01T01:13:59.662Z,0.61
2023-03-01T01:14:59.652Z,0.60
2023-03-01T01:15:59.716Z,0.53
2023-03-01T01:16:59.636Z,0.53
2023-03-01T01:17:59.623Z,0.51
2023-03-01T01:18:59.648Z,0.49
2023-03-01T01:19:59.614Z,0.62
2023-03-01T01:20:59.610Z,0.53
2023-03-01T01:21:59.597Z,0.61
2023-03-01T01:22:59.590Z,0.72
2023-03-01T01:23:59.602Z,0.73
2023-03-01T01:24:59.590Z,0.69
2023-03-01T01:25:59.567Z,0.70
2023-03-01T01:26:59.568Z,0.65
2023-03-01T01:27:59.564Z,0.68
2023-03-01T01:28:59.562Z,0.75
2023-03-01T01:29:59.536Z,0.79
2023-03-01T01:30:59.584Z,0.86
2023-03-01T01:31:59.541Z,0.88
2023-03-01T01:32:59.519Z,0.80
2023-03-01T01:33:59.515Z,0.91
2023-03-01T01:34:59.527Z,0.79
2023-03-01T01:35:59.495Z,0.72
2023-03-01T01:36:59.488Z,0.57
2023-03-01T01:37:59.481Z,0.46
2023-03-01T01:38:59.480Z,0.55
2023-03-01T01:39:59.465Z,0.49
2023-03-01T01:40:59.465Z,0.47
2023-03-01T01:41:59.450Z,0.38
2023-03-01T01:42:59.452Z,0.41
2023-03-01T01:43:59.438Z,0.28
2023-03-01T01:44:59.433Z,0.20
2023-03-01T01:45:59.475Z,0.24
2023-03-01T01:46:59.423Z,0.23
2023-03-01T01:47:59.407Z,0.33
2023-03-01T01:48:59.400Z,0.44
2023-03-01T01:49:59.394Z,0.41
2023-03-01T01:50:59.409Z,0.44
2023-03-01T01:51:59.386Z,0.47
2023-03-01T01:52:59.372Z,0.50
2023-03-01T01:53:59.365Z,0.47
2023-03-01T01:54:59.360Z,0.39
2023-03-01T01:55:59.353Z,0.24
2023-03-01T01:56:59.355Z,0.18
2023-03-01T01:57:59.339Z,0.07
2023-03-01T01:58:59.330Z,0.08
2023-03-01T01:59:59.317Z,0.07
2023-03-01T02:00:59.310Z,0.03
2023-03-01T02:01:59.303Z,-0.04
2023-03-01T02:02:59.379Z,-0.10
2023-03-01T02:03:59.287Z,-0.11
2023-03-01T02:04:59.292Z,-0.07
2023-03-01T02:05:59.281Z,-0.07
2023-03-01T02:06:59.302Z,-0.19
2023-03-01T02:07:59.262Z,-0.14
2023-03-01T02:08:59.255Z,-0.21
2023-03-01T02:09:59.252Z,-0.19
2023-03-01T02:10:59.244Z,-0.18
2023-03-01T02:11:59.230Z,-0.23
2023-03-01T02:12:59.235Z,-0.28
2023-03-01T02:13:59.217Z,-0.18
2023-03-01T02:14:59.694Z,-0.07
2023-03-01T02:15:59.282Z,0.11
2023-03-01T02:16:59.193Z,0.26
2023-03-01T02:17:59.192Z,0.20
2023-03-01T02:18:59.198Z,0.23
2023-03-01T02:19:59.175Z,0.28
2023-03-01T02:20:59.168Z,0.21
2023-03-01T02:21:59.178Z,0.23
2023-03-01T02:22:59.179Z,0.08
2023-03-01T02:23:59.138Z,0.04
2023-03-01T02:24:59.148Z,0.08
2023-03-01T02:25:59.127Z,0.13
2023-03-01T02:26:59.127Z,0.08
2023-03-01T02:27:59.108Z,0.07
2023-03-01T02:28:59.110Z,0.07
2023-03-01T02:29:59.098Z,0.02
2023-03-01T02:30:59.180Z,0.00
2023-03-01T02:31:59.129Z,-0.03
2023-03-01T02:32:59.075Z,0.02
2023-03-01T02:33:59.064Z,0.03
2023-03-01T02:34:59.066Z,-0.05
2023-03-01T02:35:59.071Z,-0.04
2023-03-01T02:36:59.042Z,-0.04
2023-03-01T02:37:59.032Z,-0.01
2023-03-01T02:38:59.060Z,-0.01
2023-03-01T02:39:59.022Z,0.03
2023-03-01T02:40:59.033Z,0.07
2023-03-01T02:41:59.010Z,0.08
2023-03-01T02:42:58.995Z,0.10
2023-03-01T02:43:58.994Z,0.04
2023-03-01T02:44:58.988Z,-0.03
2023-03-01T02:45:58.984Z,0.02
2023-03-01T02:46:59.023Z,0.15
2023-03-01T02:47:58.966Z,0.08
2023-03-01T02:48:58.979Z,0.14
2023-03-01T02:49:58.943Z,-0.05
2023-03-01T02:50:58.944Z,-0.15
2023-03-01T02:51:58.929Z,-0.07
2023-03-01T02:52:58.926Z,-0.07
2023-03-01T02:53:58.913Z,-0.07
2023-03-01T02:54:58.936Z,-0.16
2023-03-01T02:55:58.897Z,-0.14
2023-03-01T02:56:58.909Z,-0.21
2023-03-01T02:57:58.894Z,-0.07
2023-03-01T02:58:58.891Z,-0.14
2023-03-01T02:59:58.872Z,-0.15
2023-03-01T03:00:58.914Z,-0.15
2023-03-01T03:01:58.857Z,-0.08
2023-03-01T03:02:58.856Z,-0.15
2023-03-01T03:03:58.857Z,-0.10
2023-03-01T03:04:58.922Z,-0.18
2023-03-01T03:05:58.827Z,-0.14
2023-03-01T03:06:58.823Z,-0.14
2023-03-01T03:07:58.871Z,-0.15
2023-03-01T03:08:58.802Z,-0.19
2023-03-01T03:09:58.826Z,-0.23
2023-03-01T03:10:58.817Z,-0.21
2023-03-01T03:11:58.776Z,-0.22
2023-03-01T03:12:58.776Z,-0.16
2023-03-01T03:13:58.762Z,-0.29
2023-03-01T03:14:58.759Z,-0.25
2023-03-01T03:15:58.778Z,-0.22
2023-03-01T03:16:58.744Z,-0.18
2023-03-01T03:17:58.733Z,-0.29
2023-03-01T03:18:58.726Z,-0.18
2023-03-01T03:19:58.716Z,-0.14
2023-03-01T03:20:58.709Z,-0.18
2023-03-01T03:21:58.698Z,-0.18
2023-03-01T03:22:58.693Z,-0.29
2023-03-01T03:23:59.392Z,-0.25
2023-03-01T03:24:58.679Z,-0.40
2023-03-01T03:25:58.668Z,-0.26
2023-03-01T03:26:58.703Z,-0.29
2023-03-01T03:27:58.653Z,-0.40
2023-03-01T03:28:58.647Z,-0.34
2023-03-01T03:29:58.643Z,-0.40
2023-03-01T03:30:58.634Z,-0.43
2023-03-01T03:31:58.694Z,-0.42
2023-03-01T03:32:58.617Z,-0.36
2023-03-01T03:33:58.603Z,-0.47
2023-03-01T03:34:58.602Z,-0.42
2023-03-01T03:35:58.608Z,-0.49
2023-03-01T03:36:58.599Z,-0.44
2023-03-01T03:37:58.574Z,-0.49
2023-03-01T03:38:58.572Z,-0.62
2023-03-01T03:39:58.558Z,-0.52
2023-03-01T03:40:58.551Z,-0.65
2023-03-01T03:41:58.542Z,-0.67
2023-03-01T03:42:58.558Z,-0.72
2023-03-01T03:43:58.838Z,-0.70
2023-03-01T03:44:58.524Z,-0.75
2023-03-01T03:45:58.613Z,-0.76
2023-03-01T03:46:58.508Z,-0.78
2023-03-01T03:47:58.494Z,-0.85
2023-03-01T03:48:58.491Z,-0.79
2023-03-01T03:49:58.483Z,-0.79
2023-03-01T03:50:58.477Z,-0.79
2023-03-01T03:51:58.467Z,-0.80
2023-03-01T03:52:58.459Z,-0.64
2023-03-01T03:53:58.447Z,-0.55
2023-03-01T03:54:58.443Z,-0.60
2023-03-01T03:55:58.433Z,-0.49
2023-03-01T03:56:58.434Z,-0.58
2023-03-01T03:57:58.418Z,-0.44
2023-03-01T03:58:58.434Z,-0.55
2023-03-01T03:59:58.406Z,-0.61
2023-03-01T04:00:58.402Z,-0.60
2023-03-01T04:01:58.404Z,-0.54
2023-03-01T04:02:58.418Z,-0.54
2023-03-01T04:03:58.368Z,-0.64
2023-03-01T04:04:58.367Z,-0.61
2023-03-01T04:05:58.360Z,-0.58
2023-03-01T04:06:58.360Z,-0.60
2023-03-01T04:07:58.341Z,-0.57
2023-03-01T04:08:58.337Z,-0.49
2023-03-01T04:09:58.324Z,-0.47
2023-03-01T04:10:58.322Z,-0.46
2023-03-01T04:11:58.309Z,-0.40
2023-03-01T04:12:58.320Z,-0.36
2023-03-01T04:13:58.289Z,-0.40
2023-03-01T04:14:58.312Z,-0.40
2023-03-01T04:15:58.282Z,-0.37
2023-03-01T04:16:58.270Z,-0.37
2023-03-01T04:17:58.277Z,-0.37
2023-03-01T04:18:58.257Z,-0.44
2023-03-01T04:19:58.251Z,-0.34
2023-03-01T04:20:58.242Z,-0.29
2023-03-01T04:21:58.238Z,-0.37
2023-03-01T04:22:58.221Z,-0.39
2023-03-01T04:23:58.238Z,-0.47
2023-03-01T04:24:58.221Z,-0.42
2023-03-01T04:25:58.212Z,-0.39
2023-03-01T04:26:58.189Z,-0.51
2023-03-01T04:27:58.185Z,-0.51
2023-03-01T04:28:58.172Z,-0.62
2023-03-01T04:29:58.168Z,-0.60
2023-03-01T04:30:58.182Z,-0.55
2023-03-01T04:31:58.225Z,-0.54
2023-03-01T04:32:58.145Z,-0.46
2023-03-01T04:33:58.139Z,-0.58
2023-03-01T04:34:58.129Z,-0.55
2023-03-01T04:35:58.235Z,-0.62
2023-03-01T04:36:58.112Z,-0.60
2023-03-01T04:37:58.106Z,-0.65
2023-03-01T04:38:58.104Z,-0.73
2023-03-01T04:39:58.093Z,-0.70
2023-03-01T04:40:58.079Z,-0.64
2023-03-01T04:41:58.082Z,-0.70
2023-03-01T04:42:58.073Z,-0.72
2023-03-01T04:43:58.061Z,-0.85
2023-03-01T04:44:58.046Z,-0.75
2023-03-01T04:45:58.074Z,-0.82
2023-03-01T04:46:58.056Z,-0.80
2023-03-01T04:47:58.026Z,-0.78
2023-03-01T04:48:58.013Z,-0.76
2023-03-01T04:49:58.013Z,-0.70
2023-03-01T04:50:58.004Z,-0.64
2023-03-01T04:51:57.994Z,-0.67
2023-03-01T04:52:57.988Z,-0.70
2023-03-01T04:53:57.983Z,-0.64
2023-03-01T04:54:57.974Z,-0.67
2023-03-01T04:55:57.965Z,-0.70
2023-03-01T04:56:57.957Z,-0.75
2023-03-01T04:57:57.963Z,-0.82
2023-03-01T04:58:57.944Z,-0.79
2023-03-01T04:59:57.937Z,-0.85
2023-03-01T05:00:57.923Z,-0.86
2023-03-01T05:01:57.928Z,-0.94
2023-03-01T05:02:57.956Z,-0.99
2023-03-01T05:03:57.908Z,-0.95
2023-03-01T05:04:57.887Z,-1.02
2023-03-01T05:05:57.885Z,-0.95
2023-03-01T05:06:57.877Z,-0.91
2023-03-01T05:07:57.879Z,-0.97
2023-03-01T05:08:57.859Z,-1.01
2023-03-01T05:09:57.854Z,-0.98
2023-03-01T05:10:57.852Z,-0.85
2023-03-01T05:11:57.837Z,-0.89
2023-03-01T05:12:57.825Z,-0.85
2023-03-01T05:13:57.821Z,-0.82
2023-03-01T05:14:57.807Z,-0.82
2023-03-01T05:15:57.879Z,-0.89
2023-03-01T05:16:57.793Z,-0.91
2023-03-01T05:17:57.794Z,-0.99
2023-03-01T05:18:57.803Z,-0.99
2023-03-01T05:19:57.774Z,-1.02
2023-03-01T05:20:57.763Z,-0.83
2023-03-01T05:21:58.822Z,-0.85
2023-03-01T05:22:57.750Z,-0.72
2023-03-01T05:23:57.759Z,-0.76
2023-03-01T05:24:57.729Z,-0.65
2023-03-01T05:25:57.726Z,-0.73
2023-03-01T05:26:57.720Z,-0.72
2023-03-01T05:27:57.715Z,-0.61
2023-03-01T05:28:57.703Z,-0.72
2023-03-01T05:29:57.691Z,-0.64
2023-03-01T05:30:57.707Z,-0.72
2023-03-01T05:31:57.712Z,-0.76
2023-03-01T05:32:57.667Z,-0.78
2023-03-01T05:33:57.710Z,-0.83
2023-03-01T05:34:57.669Z,-0.82
2023-03-01T05:35:57.686Z,-0.94
2023-03-01T05:36:57.636Z,-0.99
2023-03-01T05:37:57.631Z,-0.98
2023-03-01T05:38:57.616Z,-0.91
2023-03-01T05:39:57.611Z,-0.92
2023-03-01T05:40:57.602Z,-0.85
2023-03-01T05:41:57.599Z,-0.85
2023-03-01T05:42:57.656Z,-0.80
2023-03-01T05:43:57.594Z,-0.79
2023-03-01T05:44:57.573Z,-0.85
2023-03-01T05:45:57.696Z,-0.79
2023-03-01T05:46:57.566Z,-0.86
2023-03-01T05:47:57.572Z,-0.85
2023-03-01T05:48:57.535Z,-0.79
2023-03-01T05:49:57.531Z,-0.80
2023-03-01T05:50:57.541Z,-0.79
2023-03-01T05:51:57.517Z,-0.79
2023-03-01T05:52:57.508Z,-0.92
2023-03-01T05:53:57.501Z,-0.94
2023-03-01T05:54:57.489Z,-1.04
2023-03-01T05:55:57.484Z,-1.02
2023-03-01T05:56:57.479Z,-0.95
2023-03-01T05:57:57.487Z,-0.98
2023-03-01T05:58:57.458Z,-1.02
2023-03-01T05:59:57.455Z,-1.05
2023-03-01T06:00:57.510Z,-1.12
2023-03-01T06:01:57.442Z,-1.04
2023-03-01T06:02:57.427Z,-1.02
2023-03-01T06:03:57.421Z,-1.04
2023-03-01T06:04:57.547Z,-1.02
2023-03-01T06:05:57.411Z,-1.02
2023-03-01T06:06:57.526Z,-1.01
2023-03-01T06:07:57.397Z,-0.98
2023-03-01T06:08:57.375Z,-0.94
2023-03-01T06:09:57.367Z,-0.98
2023-03-01T06:10:57.361Z,-0.91
2023-03-01T06:11:57.356Z,-1.01
2023-03-01T06:12:57.371Z,-0.98
2023-03-01T06:13:57.380Z,-0.86
2023-03-01T06:14:57.340Z,-0.95
2023-03-01T06:15:57.390Z,-0.94
2023-03-01T06:16:57.314Z,-1.01
2023-03-01T06:17:58.940Z,-0.86
2023-03-01T06:18:57.303Z,-0.89
2023-03-01T06:19:57.297Z,-0.80
2023-03-01T06:20:57.291Z,-0.79
2023-03-01T06:21:57.273Z,-0.82
2023-03-01T06:22:57.351Z,-0.73
2023-03-01T06:23:57.266Z,-0.76
2023-03-01T06:24:57.248Z,-0.75
2023-03-01T06:25:57.251Z,-0.69
2023-03-01T06:26:57.237Z,-0.61
2023-03-01T06:27:57.231Z,-0.55
2023-03-01T06:28:57.222Z,-0.61
2023-03-01T06:29:57.213Z,-0.46
2023-03-01T06:30:57.222Z,-0.54
2023-03-01T06:31:57.282Z,-0.46
2023-03-01T06:32:57.183Z,-0.42
2023-03-01T06:33:57.186Z,-0.51
2023-03-01T06:34:57.166Z,-0.34
2023-03-01T06:35:57.190Z,-0.44
2023-03-01T06:36:57.155Z,-0.39
2023-03-01T06:37:57.148Z,-0.22
2023-03-01T06:38:57.160Z,-0.18
2023-03-01T06:39:57.135Z,-0.14
2023-03-01T06:40:57.123Z,-0.10
2023-03-01T06:41:57.119Z,0.00
2023-03-01T06:42:57.106Z,0.03
2023-03-01T06:43:57.107Z,0.15
2023-03-01T06:44:57.088Z,0.20
2023-03-01T06:45:57.096Z,0.33
2023-03-01T06:46:57.118Z,0.38
2023-03-01T06:47:57.069Z,0.53
2023-03-01T06:48:57.055Z,0.50
2023-03-01T06:49:57.054Z,0.60
2023-03-01T06:50:57.048Z,0.61
2023-03-01T06:51:57.043Z,0.68
2023-03-01T06:52:57.028Z,0.79
2023-03-01T06:53:57.021Z,0.88
2023-03-01T06:54:57.047Z,0.97
2023-03-01T06:55:57.005Z,1.02
2023-03-01T06:56:56.993Z,1.08
2023-03-01T06:57:56.984Z,1.16
2023-03-01T06:58:56.981Z,1.18
2023-03-01T06:59:56.974Z,1.30
2023-03-01T07:00:56.961Z,1.33
2023-03-01T07:01:57.055Z,1.42
2023-03-01T07:02:56.993Z,1.45
2023-03-01T07:03:56.937Z,1.48
2023-03-01T07:04:56.929Z,1.51
2023-03-01T07:05:56.932Z,1.69
2023-03-01T07:06:56.912Z,1.76
2023-03-01T07:07:56.919Z,1.72
2023-03-01T07:08:56.896Z,1.88
2023-03-01T07:09:56.899Z,1.99
2023-03-01T07:10:56.927Z,2.17
2023-03-01T07:11:56.879Z,2.16
2023-03-01T07:12:56.876Z,2.17
2023-03-01T07:13:56.865Z,2.27
2023-03-01T07:14:56.855Z,2.35
2023-03-01T07:15:56.857Z,2.38
2023-03-01T07:16:56.837Z,2.48
2023-03-01T07:17:56.836Z,2.43
2023-03-01T07:18:58.222Z,2.53
2023-03-01T07:19:56.878Z,2.57
2023-03-01T07:20:56.821Z,2.61
2023-03-01T07:21:56.825Z,2.72
2023-03-01T07:22:56.801Z,2.78
2023-03-01T07:23:56.792Z,2.89
2023-03-01T07:24:56.790Z,2.90
2023-03-01T07:25:56.800Z,3.00
2023-03-01T07:26:56.792Z,3.06
2023-03-01T07:27:56.764Z,3.14
2023-03-01T07:28:56.760Z,3.11
2023-03-01T07:29:56.748Z,3.23
2023-03-01T07:30:56.748Z,3.26
2023-03-01T07:31:56.860Z,3.43
2023-03-01T07:32:56.992Z,3.60
2023-03-01T07:33:56.740Z,3.60
2023-03-01T07:34:56.719Z,3.61
2023-03-01T07:35:56.737Z,3.62
2023-03-01T07:36:56.704Z,3.76
2023-03-01T07:37:56.696Z,3.78
2023-03-01T07:38:56.688Z,3.88
2023-03-01T07:39:56.686Z,3.97
2023-03-01T07:40:56.674Z,3.98
2023-03-01T07:41:56.676Z,4.09
2023-03-01T07:42:56.701Z,4.16
2023-03-01T07:43:56.660Z,4.34
2023-03-01T07:44:56.650Z,4.34
2023-03-01T07:45:56.741Z,4.41
2023-03-01T07:46:56.637Z,4.48
2023-03-01T07:47:56.636Z,4.55
2023-03-01T07:48:56.645Z,4.55
2023-03-01T07:49:56.620Z,4.70
2023-03-01T07:50:56.611Z,4.85
2023-03-01T07:51:56.608Z,4.88
2023-03-01T07:52:56.601Z,4.89
2023-03-01T07:53:56.598Z,4.92
2023-03-01T07:54:56.638Z,5.06
2023-03-01T07:55:56.585Z,5.13
2023-03-01T07:56:56.576Z,5.13
2023-03-01T07:57:56.574Z,5.25
2023-03-01T07:58:56.590Z,5.27
2023-03-01T07:59:56.564Z,5.49
2023-03-01T08:00:56.555Z,5.65
2023-03-01T08:01:56.594Z,5.85
2023-03-01T08:02:56.557Z,6.17
2023-03-01T08:03:56.543Z,6.34
2023-03-01T08:04:56.527Z,6.73
2023-03-01T08:05:56.529Z,7.03
2023-03-01T08:06:56.517Z,7.23
2023-03-01T08:07:56.518Z,7.49
2023-03-01T08:08:56.542Z,7.69
2023-03-01T08:09:56.505Z,8.05
2023-03-01T08:10:56.493Z,8.33
2023-03-01T08:11:56.555Z,8.44
2023-03-01T08:12:56.486Z,8.63
2023-03-01T08:13:56.505Z,8.89
2023-03-01T08:14:56.495Z,9.05
2023-03-01T08:15:56.473Z,9.18
2023-03-01T08:16:56.588Z,9.24
2023-03-01T08:17:56.464Z,9.36
2023-03-01T08:18:56.456Z,9.39
2023-03-01T08:19:56.451Z,9.58
2023-03-01T08:20:56.446Z,9.71
2023-03-01T08:21:56.445Z,10.01
2023-03-01T08:22:56.436Z,10.25
2023-03-01T08:23:56.435Z,10.48
2023-03-01T08:24:56.430Z,10.56
2023-03-01T08:25:56.427Z,10.78
2023-03-01T08:26:56.420Z,11.04
2023-03-01T08:27:56.419Z,11.39
2023-03-01T08:28:56.412Z,11.55
2023-03-01T08:29:56.415Z,11.54
2023-03-01T08:30:56.431Z,11.60
2023-03-01T08:31:56.537Z,11.91
2023-03-01T08:32:56.572Z,12.32
2023-03-01T08:33:56.581Z,12.54
2023-03-01T08:34:56.398Z,13.12
2023-03-01T08:35:56.504Z,13.66
2023-03-01T08:36:56.401Z,14.22
2023-03-01T08:37:56.399Z,14.40
2023-03-01T08:38:56.396Z,14.88
2023-03-01T08:39:56.482Z,15.17
2023-03-01T08:40:56.377Z,15.62
2023-03-01T08:41:56.371Z,15.97
2023-03-01T08:42:56.377Z,16.21
2023-03-01T08:43:56.368Z,16.42
2023-03-01T08:44:56.375Z,16.67
2023-03-01T08:45:56.463Z,16.67
2023-03-01T08:46:56.390Z,17.14
2023-03-01T08:47:56.368Z,17.55
2023-03-01T08:48:56.362Z,17.93
2023-03-01T08:49:56.363Z,18.47
2023-03-01T08:50:56.363Z,18.73
2023-03-01T08:51:56.359Z,19.36
2023-03-01T08:52:56.368Z,19.56
2023-03-01T08:53:56.358Z,19.73
2023-03-01T08:54:56.363Z,19.77
2023-03-01T08:55:56.358Z,20.10
2023-03-01T08:56:56.368Z,20.42
2023-03-01T08:57:56.360Z,20.89
2023-03-01T08:58:56.367Z,21.25
2023-03-01T08:59:56.356Z,21.37
2023-03-01T09:00:56.361Z,21.52
2023-03-01T09:01:56.390Z,21.64
2023-03-01T09:02:56.375Z,21.82
2023-03-01T09:03:56.369Z,21.58
2023-03-01T09:04:56.363Z,20.43
2023-03-01T09:05:56.361Z,19.02
2023-03-01T09:06:56.364Z,18.11
2023-03-01T09:07:56.384Z,18.11
2023-03-01T09:08:56.387Z,18.33
2023-03-01T09:09:56.371Z,19.28
2023-03-01T09:10:56.368Z,19.95
2023-03-01T09:11:56.374Z,20.74
2023-03-01T09:12:56.378Z,21.28
2023-03-01T09:13:56.370Z,21.88
2023-03-01T09:14:56.373Z,21.92
2023-03-01T09:15:56.371Z,21.98
2023-03-01T09:16:56.424Z,22.05
2023-03-01T09:17:56.378Z,22.33
2023-03-01T09:18:56.408Z,22.39
2023-03-01T09:19:56.375Z,22.30
2023-03-01T09:20:56.410Z,22.43
2023-03-01T09:21:56.377Z,22.55
2023-03-01T09:22:56.376Z,22.70
2023-03-01T09:23:56.376Z,22.86
2023-03-01T09:24:56.385Z,22.77
2023-03-01T09:25:56.380Z,22.73
2023-03-01T09:26:56.399Z,22.79
2023-03-01T09:27:56.387Z,23.15
2023-03-01T09:28:56.383Z,23.19
2023-03-01T09:29:56.385Z,23.22
2023-03-01T09:30:56.396Z,23.20
2023-03-01T09:31:56.636Z,23.25
2023-03-01T09:32:56.388Z,23.25
2023-03-01T09:33:56.395Z,23.46
2023-03-01T09:34:56.428Z,23.84
2023-03-01T09:35:56.396Z,23.80
2023-03-01T09:36:56.399Z,23.43
2023-03-01T09:37:56.395Z,23.22
2023-03-01T09:38:56.398Z,23.40
2023-03-01T09:39:56.392Z,23.07
2023-03-01T09:40:56.413Z,22.86
2023-03-01T09:41:56.410Z,22.55
2023-03-01T09:42:56.396Z,22.35
2023-03-01T09:43:56.739Z,22.54
2023-03-01T09:44:56.400Z,22.30
2023-03-01T09:45:56.434Z,22.39
2023-03-01T09:46:56.419Z,22.22
2023-03-01T09:47:56.408Z,22.27
2023-03-01T09:48:56.402Z,22.20
2023-03-01T09:49:56.397Z,21.92
2023-03-01T09:50:56.442Z,21.99
2023-03-01T09:51:56.419Z,21.74
2023-03-01T09:52:56.413Z,21.40
2023-03-01T09:53:56.398Z,20.55
2023-03-01T09:54:58.224Z,19.99
2023-03-01T09:55:56.402Z,19.32
2023-03-01T09:56:56.406Z,18.23
2023-03-01T09:57:56.407Z,17.41
2023-03-01T09:58:56.435Z,17.62
2023-03-01T09:59:56.421Z,16.66
2023-03-01T10:00:56.404Z,15.89
2023-03-01T10:01:56.409Z,15.47
2023-03-01T10:02:56.413Z,15.21
2023-03-01T10:03:56.444Z,15.34
2023-03-01T10:04:56.491Z,15.87
2023-03-01T10:05:56.410Z,16.01
2023-03-01T10:06:56.439Z,15.87
2023-03-01T10:07:56.414Z,15.74
2023-03-01T10:08:56.404Z,15.83
2023-03-01T10:09:56.406Z,15.86
2023-03-01T10:10:56.409Z,16.24
2023-03-01T10:11:56.408Z,16.61
2023-03-01T10:12:56.409Z,16.81
2023-03-01T10:13:56.404Z,16.66
2023-03-01T10:14:56.405Z,16.42
2023-03-01T10:15:56.573Z,16.01
2023-03-01T10:16:56.416Z,16.28
2023-03-01T10:17:56.403Z,16.48
2023-03-01T10:18:56.412Z,16.76
2023-03-01T10:19:56.404Z,17.07
2023-03-01T10:20:56.408Z,17.16
2023-03-01T10:21:56.400Z,17.33
2023-03-01T10:22:56.497Z,17.43
2023-03-01T10:23:56.401Z,17.55
2023-03-01T10:24:56.406Z,17.49
2023-03-01T10:25:56.399Z,17.54
2023-03-01T10:26:56.402Z,17.56
2023-03-01T10:27:56.418Z,17.44
2023-03-01T10:28:56.406Z,17.12
2023-03-01T10:29:56.395Z,17.04
2023-03-01T10:30:56.504Z,17.04
2023-03-01T10:31:56.482Z,16.98
2023-03-01T10:32:56.399Z,16.91
2023-03-01T10:33:56.395Z,16.38
2023-03-01T10:34:56.393Z,16.49
2023-03-01T10:35:56.432Z,16.39
2023-03-01T10:36:56.396Z,16.45
2023-03-01T10:37:56.395Z,16.24
2023-03-01T10:38:56.419Z,16.28
2023-03-01T10:39:56.396Z,16.30
2023-03-01T10:40:56.398Z,15.97
2023-03-01T10:41:56.399Z,15.39
2023-03-01T10:42:56.396Z,14.65
2023-03-01T10:43:56.400Z,14.54
2023-03-01T10:44:56.398Z,14.39
2023-03-01T10:45:56.465Z,14.60
2023-03-01T10:46:56.393Z,14.75
2023-03-01T10:47:56.402Z,15.01
2023-03-01T10:48:56.393Z,15.14
2023-03-01T10:49:56.401Z,15.38
2023-03-01T10:50:56.396Z,15.67
2023-03-01T10:51:56.388Z,15.96
2023-03-01T10:52:56.391Z,16.00
2023-03-01T10:53:56.390Z,16.28
2023-03-01T10:54:56.405Z,16.30
2023-03-01T10:55:56.384Z,16.33
2023-03-01T10:56:56.413Z,16.42
2023-03-01T10:57:56.391Z,16.34
2023-03-01T10:58:56.391Z,15.65
2023-03-01T10:59:56.385Z,15.65
2023-03-01T11:00:56.386Z,15.44
2023-03-01T11:01:56.391Z,15.17
2023-03-01T11:02:56.393Z,14.84
2023-03-01T11:03:56.382Z,14.78
2023-03-01T11:04:56.430Z,14.47
2023-03-01T11:05:56.389Z,14.51
2023-03-01T11:06:56.382Z,14.80
2023-03-01T11:07:56.390Z,14.78
2023-03-01T11:08:56.385Z,14.20
2023-03-01T11:09:56.392Z,14.12
2023-03-01T11:10:56.407Z,14.22
2023-03-01T11:11:56.382Z,14.24
2023-03-01T11:12:56.401Z,14.20
2023-03-01T11:13:56.387Z,14.12
2023-03-01T11:14:56.450Z,13.95
2023-03-01T11:15:56.406Z,13.73
2023-03-01T11:16:56.411Z,13.77
2023-03-01T11:18:03.096Z,13.73
2023-03-01T11:18:56.410Z,13.78
2023-03-01T11:20:02.696Z,13.11
2023-03-01T11:20:56.380Z,13.12
2023-03-01T11:21:56.428Z,13.54
2023-03-01T11:22:56.377Z,13.88
2023-03-01T11:23:56.375Z,14.20
2023-03-01T11:25:09.067Z,14.52
2023-03-01T11:25:56.375Z,14.52
2023-03-01T11:26:56.404Z,14.83
2023-03-01T11:27:56.369Z,14.96
2023-03-01T11:28:56.372Z,15.23
2023-03-01T11:29:56.365Z,15.06
2023-03-01T11:31:07.789Z,14.96
2023-03-01T11:31:58.016Z,14.88
2023-03-01T11:32:56.520Z,14.62
2023-03-01T11:33:56.381Z,14.46
2023-03-01T11:34:56.363Z,14.43
2023-03-01T11:35:56.377Z,14.39
2023-03-01T11:36:56.384Z,14.39
2023-03-01T11:37:56.366Z,14.21
2023-03-01T11:38:56.369Z,14.06
2023-03-01T11:39:56.356Z,14.24
2023-03-01T11:40:56.361Z,14.42
2023-03-01T11:41:58.130Z,14.32
2023-03-01T11:42:56.460Z,14.39
2023-03-01T11:43:56.360Z,14.58
2023-03-01T11:44:56.354Z,14.65
2023-03-01T11:45:56.353Z,14.39
2023-03-01T11:46:56.510Z,14.14
2023-03-01T11:47:56.359Z,13.91
2023-03-01T11:48:56.351Z,13.66
2023-03-01T11:49:56.352Z,13.29
2023-03-01T11:50:56.360Z,13.49
2023-03-01T11:51:56.350Z,13.25
2023-03-01T11:52:56.351Z,13.08
2023-03-01T11:53:56.352Z,13.30
2023-03-01T11:54:56.366Z,13.49
2023-03-01T11:55:56.338Z,13.75
2023-03-01T11:56:56.367Z,13.95
2023-03-01T11:57:56.343Z,14.10
2023-03-01T11:58:56.378Z,14.18
2023-03-01T11:59:56.341Z,14.47
2023-03-01T12:00:56.380Z,14.81
2023-03-01T12:01:56.379Z,14.84
2023-03-01T12:02:56.342Z,15.28
2023-03-01T12:03:56.349Z,15.46
2023-03-01T12:04:56.346Z,15.50
2023-03-01T12:05:56.330Z,15.71
2023-03-01T12:06:57.636Z,15.82
2023-03-01T12:07:56.336Z,15.92
2023-03-01T12:08:56.333Z,15.93
2023-03-01T12:09:56.339Z,16.01
2023-03-01T12:10:56.336Z,16.15
2023-03-01T12:11:56.329Z,16.14
2023-03-01T12:12:56.331Z,16.25
2023-03-01T12:13:56.329Z,16.12
2023-03-01T12:14:56.370Z,16.12
2023-03-01T12:15:56.349Z,16.09
2023-03-01T12:16:56.353Z,15.83
2023-03-01T12:17:56.331Z,15.82
2023-03-01T12:18:56.326Z,15.96
2023-03-01T12:19:56.326Z,16.02
2023-03-01T12:20:56.326Z,15.97
2023-03-01T12:21:56.320Z,16.04
2023-03-01T12:22:56.331Z,15.44
2023-03-01T12:23:56.320Z,15.43
2023-03-01T12:24:56.323Z,15.50
2023-03-01T12:25:56.335Z,15.51
2023-03-01T12:26:56.323Z,15.64
2023-03-01T12:27:56.330Z,15.72
2023-03-01T12:28:56.327Z,15.46
2023-03-01T12:29:56.317Z,15.23
2023-03-01T12:30:56.723Z,15.36
2023-03-01T12:31:56.494Z,15.53
2023-03-01T12:32:56.376Z,15.46
2023-03-01T12:33:56.356Z,15.68
2023-03-01T12:34:56.328Z,15.67
2023-03-01T12:35:56.374Z,15.41
2023-03-01T12:36:56.319Z,15.23
2023-03-01T12:37:56.320Z,15.09
2023-03-01T12:38:56.315Z,15.10
2023-03-01T12:39:56.317Z,15.39
2023-03-01T12:40:56.316Z,15.43
2023-03-01T12:41:56.310Z,15.43
2023-03-01T12:42:56.320Z,15.50
2023-03-01T12:43:56.322Z,15.41
2023-03-01T12:44:56.309Z,15.29
2023-03-01T12:45:56.502Z,15.07
2023-03-01T12:46:56.346Z,14.99
2023-03-01T12:47:56.312Z,14.89
2023-03-01T12:48:56.310Z,14.89
2023-03-01T12:49:56.310Z,14.62
2023-03-01T12:50:56.310Z,14.51
2023-03-01T12:51:57.514Z,14.57
2023-03-01T12:52:56.304Z,14.69
2023-03-01T12:53:56.319Z,14.68
2023-03-01T12:54:56.313Z,14.78
2023-03-01T12:55:56.302Z,14.73
2023-03-01T12:56:56.307Z,14.89
2023-03-01T12:57:56.314Z,14.81
2023-03-01T12:58:58.812Z,14.89
2023-03-01T12:59:56.303Z,15.13